Terminal Aerodrome Forecast
Issued by NWS

Home | Current Version | Previous Version | Graphics & Text | Print | Product List | Glossary On
Versions: 1 2 3 4 5 6 7 8 9 10 11 12 13 14 15 16
000
FTUS45 KGGW 212320
TAFOLF
TAF
KOLF 212320Z 2200/2224 VRB06KT P6SM SCT100 BKN140
     FM221500 04008KT P6SM BKN016
     FM221900 06006KT P6SM BKN035=

USA.gov is the U.S. government's official web portal to all federal, state and local government web resources and services.